sensor_id;sensor_type;location;lat;lon;timestamp;P1;durP1;ratioP1;P2;durP2;ratioP2
36061;SDS011;22123;52.412;20.970;2022-07-29T00:02:12;7.30;;;2.90;;
36061;SDS011;22123;52.412;20.970;2022-07-29T00:04:37;6.53;;;2.80;;
36061;SDS011;22123;52.412;20.970;2022-07-29T00:07:03;8.15;;;3.55;;
36061;SDS011;22123;52.412;20.970;2022-07-29T00:09:30;10.43;;;3.40;;
36061;SDS011;22123;52.412;20.970;2022-07-29T00:11:57;5.97;;;3.10;;
36061;SDS011;22123;52.412;20.970;2022-07-29T00:14:25;8.38;;;3.00;;
36061;SDS011;22123;52.412;20.970;2022-07-29T00:16:51;6.05;;;2.80;;
36061;SDS011;22123;52.412;20.970;2022-07-29T00:19:17;5.57;;;2.92;;
36061;SDS011;22123;52.412;20.970;2022-07-29T00:21:42;6.78;;;2.85;;
36061;SDS011;22123;52.412;20.970;2022-07-29T00:24:07;11.07;;;2.88;;
36061;SDS011;22123;52.412;20.970;2022-07-29T00:26:33;7.03;;;2.65;;
36061;SDS011;22123;52.412;20.970;2022-07-29T00:28:59;5.80;;;2.42;;
36061;SDS011;22123;52.412;20.970;2022-07-29T00:31:25;6.15;;;2.70;;
36061;SDS011;22123;52.412;20.970;2022-07-29T00:33:51;7.07;;;2.42;;
36061;SDS011;22123;52.412;20.970;2022-07-29T00:36:16;5.97;;;2.67;;
36061;SDS011;22123;52.412;20.970;2022-07-29T00:38:42;5.38;;;2.83;;
36061;SDS011;22123;52.412;20.970;2022-07-29T00:41:10;5.63;;;2.53;;
36061;SDS011;22123;52.412;20.970;2022-07-29T00:43:36;6.82;;;3.28;;
36061;SDS011;22123;52.412;20.970;2022-07-29T00:46:02;7.53;;;3.40;;
36061;SDS011;22123;52.412;20.970;2022-07-29T00:48:27;4.13;;;2.33;;
36061;SDS011;22123;52.412;20.970;2022-07-29T00:50:53;5.38;;;2.63;;
36061;SDS011;22123;52.412;20.970;2022-07-29T00:53:19;4.43;;;2.65;;
36061;SDS011;22123;52.412;20.970;2022-07-29T00:55:45;8.13;;;2.50;;
36061;SDS011;22123;52.412;20.970;2022-07-29T00:58:11;6.57;;;3.72;;
36061;SDS011;22123;52.412;20.970;2022-07-29T01:00:38;6.18;;;2.92;;
36061;SDS011;22123;52.412;20.970;2022-07-29T01:03:05;6.40;;;2.75;;
36061;SDS011;22123;52.412;20.970;2022-07-29T01:05:32;6.80;;;3.67;;
36061;SDS011;22123;52.412;20.970;2022-07-29T01:07:58;7.40;;;2.83;;
36061;SDS011;22123;52.412;20.970;2022-07-29T01:10:25;7.97;;;3.10;;
36061;SDS011;22123;52.412;20.970;2022-07-29T01:12:51;6.63;;;2.35;;
36061;SDS011;22123;52.412;20.970;2022-07-29T01:15:18;7.93;;;2.72;;
36061;SDS011;22123;52.412;20.970;2022-07-29T01:17:48;9.32;;;3.10;;
36061;SDS011;22123;52.412;20.970;2022-07-29T01:21:04;6.90;;;2.58;;
36061;SDS011;22123;52.412;20.970;2022-07-29T01:23:13;8.15;;;3.40;;
36061;SDS011;22123;52.412;20.970;2022-07-29T01:28:59;7.15;;;2.97;;
36061;SDS011;22123;52.412;20.970;2022-07-29T01:31:31;3.95;;;2.53;;
36061;SDS011;22123;52.412;20.970;2022-07-29T01:34:05;5.72;;;3.00;;
36061;SDS011;22123;52.412;20.970;2022-07-29T01:36:35;4.80;;;2.58;;
36061;SDS011;22123;52.412;20.970;2022-07-29T01:39:10;4.40;;;2.63;;
36061;SDS011;22123;52.412;20.970;2022-07-29T01:41:40;8.30;;;2.33;;
36061;SDS011;22123;52.412;20.970;2022-07-29T01:44:34;7.82;;;2.47;;
36061;SDS011;22123;52.412;20.970;2022-07-29T01:47:23;9.35;;;2.58;;
36061;SDS011;22123;52.412;20.970;2022-07-29T01:49:52;5.70;;;2.65;;
36061;SDS011;22123;52.412;20.970;2022-07-29T01:53:08;3.88;;;2.72;;
36061;SDS011;22123;52.412;20.970;2022-07-29T01:55:15;6.20;;;2.65;;
36061;SDS011;22123;52.412;20.970;2022-07-29T01:57:43;4.75;;;2.70;;
36061;SDS011;22123;52.412;20.970;2022-07-29T02:00:12;4.60;;;2.42;;
36061;SDS011;22123;52.412;20.970;2022-07-29T02:02:39;9.13;;;3.00;;
36061;SDS011;22123;52.412;20.970;2022-07-29T02:05:07;11.25;;;3.35;;
36061;SDS011;22123;52.412;20.970;2022-07-29T02:07:35;9.65;;;3.35;;
36061;SDS011;22123;52.412;20.970;2022-07-29T02:10:02;5.40;;;3.05;;
36061;SDS011;22123;52.412;20.970;2022-07-29T02:12:31;5.63;;;2.50;;
36061;SDS011;22123;52.412;20.970;2022-07-29T02:14:59;7.47;;;3.10;;
36061;SDS011;22123;52.412;20.970;2022-07-29T02:17:27;6.35;;;2.67;;
36061;SDS011;22123;52.412;20.970;2022-07-29T02:19:59;6.47;;;2.90;;
36061;SDS011;22123;52.412;20.970;2022-07-29T02:22:28;6.55;;;2.70;;
36061;SDS011;22123;52.412;20.970;2022-07-29T02:24:56;7.00;;;3.00;;
36061;SDS011;22123;52.412;20.970;2022-07-29T02:27:23;6.40;;;2.67;;
36061;SDS011;22123;52.412;20.970;2022-07-29T02:29:52;7.43;;;3.75;;
36061;SDS011;22123;52.412;20.970;2022-07-29T02:32:19;6.50;;;3.00;;
36061;SDS011;22123;52.412;20.970;2022-07-29T02:34:47;5.07;;;2.90;;
36061;SDS011;22123;52.412;20.970;2022-07-29T02:37:14;9.30;;;3.60;;
36061;SDS011;22123;52.412;20.970;2022-07-29T02:39:42;10.70;;;4.22;;
36061;SDS011;22123;52.412;20.970;2022-07-29T02:42:11;5.47;;;3.65;;
36061;SDS011;22123;52.412;20.970;2022-07-29T02:44:39;6.80;;;3.70;;
36061;SDS011;22123;52.412;20.970;2022-07-29T02:50:06;4.55;;;3.60;;
36061;SDS011;22123;52.412;20.970;2022-07-29T02:52:39;6.30;;;3.72;;
36061;SDS011;22123;52.412;20.970;2022-07-29T02:57:51;8.30;;;3.67;;
36061;SDS011;22123;52.412;20.970;2022-07-29T03:00:32;6.13;;;3.80;;
36061;SDS011;22123;52.412;20.970;2022-07-29T03:03:02;9.55;;;3.70;;
36061;SDS011;22123;52.412;20.970;2022-07-29T03:07:58;7.85;;;3.88;;
36061;SDS011;22123;52.412;20.970;2022-07-29T03:10:27;9.02;;;3.63;;
36061;SDS011;22123;52.412;20.970;2022-07-29T03:12:54;6.75;;;4.15;;
36061;SDS011;22123;52.412;20.970;2022-07-29T03:15:20;7.75;;;4.18;;
36061;SDS011;22123;52.412;20.970;2022-07-29T03:17:46;10.95;;;5.25;;
36061;SDS011;22123;52.412;20.970;2022-07-29T03:20:15;9.30;;;4.55;;
36061;SDS011;22123;52.412;20.970;2022-07-29T03:22:42;6.55;;;4.00;;
36061;SDS011;22123;52.412;20.970;2022-07-29T03:25:12;7.60;;;3.85;;
36061;SDS011;22123;52.412;20.970;2022-07-29T03:27:39;7.10;;;3.90;;
36061;SDS011;22123;52.412;20.970;2022-07-29T03:30:05;7.93;;;3.85;;
36061;SDS011;22123;52.412;20.970;2022-07-29T03:32:33;5.85;;;3.55;;
36061;SDS011;22123;52.412;20.970;2022-07-29T03:35:00;4.70;;;3.20;;
36061;SDS011;22123;52.412;20.970;2022-07-29T03:37:27;5.32;;;3.30;;
36061;SDS011;22123;52.412;20.970;2022-07-29T03:39:54;6.80;;;3.03;;
36061;SDS011;22123;52.412;20.970;2022-07-29T03:42:22;9.18;;;2.83;;
36061;SDS011;22123;52.412;20.970;2022-07-29T03:44:50;5.90;;;2.83;;
36061;SDS011;22123;52.412;20.970;2022-07-29T03:47:18;7.70;;;4.07;;
36061;SDS011;22123;52.412;20.970;2022-07-29T03:49:50;7.43;;;3.15;;
36061;SDS011;22123;52.412;20.970;2022-07-29T03:52:19;6.35;;;2.78;;
36061;SDS011;22123;52.412;20.970;2022-07-29T03:54:45;7.45;;;3.50;;
36061;SDS011;22123;52.412;20.970;2022-07-29T03:57:12;7.60;;;3.67;;
36061;SDS011;22123;52.412;20.970;2022-07-29T03:59:41;8.43;;;3.33;;
36061;SDS011;22123;52.412;20.970;2022-07-29T04:02:08;9.57;;;3.70;;
36061;SDS011;22123;52.412;20.970;2022-07-29T04:04:36;4.32;;;3.17;;
36061;SDS011;22123;52.412;20.970;2022-07-29T04:07:02;5.18;;;3.30;;
36061;SDS011;22123;52.412;20.970;2022-07-29T04:09:28;6.22;;;3.20;;
36061;SDS011;22123;52.412;20.970;2022-07-29T04:11:54;5.80;;;3.78;;
36061;SDS011;22123;52.412;20.970;2022-07-29T04:14:19;9.00;;;3.13;;
36061;SDS011;22123;52.412;20.970;2022-07-29T04:16:45;8.02;;;2.95;;
36061;SDS011;22123;52.412;20.970;2022-07-29T04:19:11;4.57;;;3.00;;
36061;SDS011;22123;52.412;20.970;2022-07-29T04:21:40;6.72;;;3.05;;
36061;SDS011;22123;52.412;20.970;2022-07-29T04:24:07;9.80;;;2.70;;
36061;SDS011;22123;52.412;20.970;2022-07-29T04:26:33;4.22;;;2.95;;
36061;SDS011;22123;52.412;20.970;2022-07-29T04:28:59;4.22;;;2.70;;
36061;SDS011;22123;52.412;20.970;2022-07-29T04:31:31;8.35;;;2.97;;
36061;SDS011;22123;52.412;20.970;2022-07-29T04:33:56;5.18;;;2.22;;
36061;SDS011;22123;52.412;20.970;2022-07-29T04:36:22;5.70;;;2.63;;
36061;SDS011;22123;52.412;20.970;2022-07-29T04:38:47;5.00;;;2.20;;
36061;SDS011;22123;52.412;20.970;2022-07-29T04:41:13;3.13;;;2.28;;
36061;SDS011;22123;52.412;20.970;2022-07-29T04:43:39;4.72;;;2.92;;
36061;SDS011;22123;52.412;20.970;2022-07-29T04:46:05;5.38;;;2.30;;
36061;SDS011;22123;52.412;20.970;2022-07-29T04:48:31;4.70;;;2.33;;
36061;SDS011;22123;52.412;20.970;2022-07-29T04:50:57;6.32;;;2.13;;
36061;SDS011;22123;52.412;20.970;2022-07-29T04:53:23;3.38;;;2.35;;
36061;SDS011;22123;52.412;20.970;2022-07-29T04:55:48;3.60;;;2.38;;
36061;SDS011;22123;52.412;20.970;2022-07-29T04:58:14;5.60;;;2.90;;
36061;SDS011;22123;52.412;20.970;2022-07-29T05:00:39;4.13;;;2.45;;
36061;SDS011;22123;52.412;20.970;2022-07-29T05:03:06;3.92;;;2.83;;
36061;SDS011;22123;52.412;20.970;2022-07-29T05:05:33;6.50;;;2.60;;
36061;SDS011;22123;52.412;20.970;2022-07-29T05:07:58;3.63;;;2.13;;
36061;SDS011;22123;52.412;20.970;2022-07-29T05:10:24;6.90;;;2.53;;
36061;SDS011;22123;52.412;20.970;2022-07-29T05:12:50;4.68;;;2.33;;
36061;SDS011;22123;52.412;20.970;2022-07-29T05:15:15;2.67;;;2.03;;
36061;SDS011;22123;52.412;20.970;2022-07-29T05:17:42;2.95;;;2.10;;
36061;SDS011;22123;52.412;20.970;2022-07-29T05:20:08;3.97;;;2.50;;
36061;SDS011;22123;52.412;20.970;2022-07-29T05:22:34;3.95;;;2.08;;
36061;SDS011;22123;52.412;20.970;2022-07-29T05:24:59;5.75;;;2.22;;
36061;SDS011;22123;52.412;20.970;2022-07-29T05:27:25;4.18;;;1.92;;
36061;SDS011;22123;52.412;20.970;2022-07-29T05:29:50;4.40;;;1.58;;
36061;SDS011;22123;52.412;20.970;2022-07-29T05:32:16;4.45;;;1.75;;
36061;SDS011;22123;52.412;20.970;2022-07-29T05:34:41;7.88;;;2.67;;
36061;SDS011;22123;52.412;20.970;2022-07-29T05:37:07;4.63;;;1.52;;
36061;SDS011;22123;52.412;20.970;2022-07-29T05:39:32;4.00;;;1.73;;
36061;SDS011;22123;52.412;20.970;2022-07-29T05:41:58;4.38;;;1.73;;
36061;SDS011;22123;52.412;20.970;2022-07-29T05:44:23;3.72;;;1.60;;
36061;SDS011;22123;52.412;20.970;2022-07-29T05:46:49;2.28;;;1.48;;
36061;SDS011;22123;52.412;20.970;2022-07-29T05:49:14;5.68;;;1.70;;
36061;SDS011;22123;52.412;20.970;2022-07-29T05:51:39;2.85;;;1.60;;
36061;SDS011;22123;52.412;20.970;2022-07-29T05:54:05;4.85;;;1.33;;
36061;SDS011;22123;52.412;20.970;2022-07-29T05:56:31;4.75;;;1.63;;
36061;SDS011;22123;52.412;20.970;2022-07-29T05:58:56;3.50;;;1.40;;
36061;SDS011;22123;52.412;20.970;2022-07-29T06:01:21;1.83;;;1.40;;
36061;SDS011;22123;52.412;20.970;2022-07-29T06:03:47;2.97;;;1.40;;
36061;SDS011;22123;52.412;20.970;2022-07-29T06:06:12;4.90;;;1.65;;
36061;SDS011;22123;52.412;20.970;2022-07-29T06:08:38;4.03;;;1.40;;
36061;SDS011;22123;52.412;20.970;2022-07-29T06:11:04;5.65;;;1.40;;
36061;SDS011;22123;52.412;20.970;2022-07-29T06:13:30;5.30;;;1.58;;
36061;SDS011;22123;52.412;20.970;2022-07-29T06:15:56;6.30;;;1.42;;
36061;SDS011;22123;52.412;20.970;2022-07-29T06:18:21;2.47;;;1.25;;
36061;SDS011;22123;52.412;20.970;2022-07-29T06:20:52;2.72;;;1.20;;
36061;SDS011;22123;52.412;20.970;2022-07-29T06:23:18;3.42;;;1.20;;
36061;SDS011;22123;52.412;20.970;2022-07-29T06:25:45;3.03;;;1.65;;
36061;SDS011;22123;52.412;20.970;2022-07-29T06:28:10;2.60;;;1.10;;
36061;SDS011;22123;52.412;20.970;2022-07-29T06:30:36;3.35;;;1.70;;
36061;SDS011;22123;52.412;20.970;2022-07-29T06:33:01;2.47;;;1.30;;
36061;SDS011;22123;52.412;20.970;2022-07-29T06:35:27;2.97;;;1.25;;
36061;SDS011;22123;52.412;20.970;2022-07-29T06:37:53;3.80;;;1.20;;
36061;SDS011;22123;52.412;20.970;2022-07-29T06:40:19;4.80;;;1.25;;
36061;SDS011;22123;52.412;20.970;2022-07-29T06:43:03;1.80;;;0.93;;
36061;SDS011;22123;52.412;20.970;2022-07-29T06:45:28;2.88;;;1.08;;
36061;SDS011;22123;52.412;20.970;2022-07-29T06:47:54;8.77;;;1.13;;
36061;SDS011;22123;52.412;20.970;2022-07-29T06:50:19;3.03;;;0.90;;
36061;SDS011;22123;52.412;20.970;2022-07-29T06:52:46;3.30;;;0.80;;
36061;SDS011;22123;52.412;20.970;2022-07-29T06:55:12;1.42;;;1.05;;
36061;SDS011;22123;52.412;20.970;2022-07-29T06:57:39;1.52;;;1.00;;
36061;SDS011;22123;52.412;20.970;2022-07-29T07:00:04;4.13;;;1.00;;
36061;SDS011;22123;52.412;20.970;2022-07-29T07:02:31;3.92;;;1.00;;
36061;SDS011;22123;52.412;20.970;2022-07-29T07:04:57;1.52;;;0.80;;
36061;SDS011;22123;52.412;20.970;2022-07-29T07:07:23;5.57;;;1.00;;
36061;SDS011;22123;52.412;20.970;2022-07-29T07:09:49;5.00;;;1.20;;
36061;SDS011;22123;52.412;20.970;2022-07-29T07:12:14;4.25;;;0.93;;
36061;SDS011;22123;52.412;20.970;2022-07-29T07:14:40;1.67;;;0.85;;
36061;SDS011;22123;52.412;20.970;2022-07-29T07:17:05;3.03;;;1.15;;
36061;SDS011;22123;52.412;20.970;2022-07-29T07:19:32;6.10;;;1.20;;
36061;SDS011;22123;52.412;20.970;2022-07-29T07:21:57;1.45;;;1.00;;
36061;SDS011;22123;52.412;20.970;2022-07-29T07:24:23;3.20;;;1.08;;
36061;SDS011;22123;52.412;20.970;2022-07-29T07:26:48;2.80;;;0.90;;
36061;SDS011;22123;52.412;20.970;2022-07-29T07:29:14;4.22;;;0.80;;
36061;SDS011;22123;52.412;20.970;2022-07-29T07:31:39;3.78;;;0.82;;
36061;SDS011;22123;52.412;20.970;2022-07-29T07:34:05;1.50;;;0.80;;
36061;SDS011;22123;52.412;20.970;2022-07-29T07:36:30;1.10;;;0.90;;
36061;SDS011;22123;52.412;20.970;2022-07-29T07:38:55;3.95;;;0.90;;
36061;SDS011;22123;52.412;20.970;2022-07-29T07:41:21;3.42;;;1.00;;
36061;SDS011;22123;52.412;20.970;2022-07-29T07:43:47;4.20;;;0.70;;
36061;SDS011;22123;52.412;20.970;2022-07-29T07:46:13;4.53;;;0.98;;
36061;SDS011;22123;52.412;20.970;2022-07-29T07:48:39;2.08;;;0.77;;
36061;SDS011;22123;52.412;20.970;2022-07-29T07:51:05;2.08;;;0.75;;
36061;SDS011;22123;52.412;20.970;2022-07-29T07:53:32;1.52;;;0.50;;
36061;SDS011;22123;52.412;20.970;2022-07-29T07:55:57;1.20;;;0.43;;
36061;SDS011;22123;52.412;20.970;2022-07-29T07:58:23;6.90;;;0.60;;
36061;SDS011;22123;52.412;20.970;2022-07-29T08:00:48;4.63;;;0.88;;
36061;SDS011;22123;52.412;20.970;2022-07-29T08:03:14;3.08;;;1.02;;
36061;SDS011;22123;52.412;20.970;2022-07-29T08:05:40;4.15;;;0.88;;
36061;SDS011;22123;52.412;20.970;2022-07-29T08:08:06;2.08;;;0.43;;
36061;SDS011;22123;52.412;20.970;2022-07-29T08:10:31;2.15;;;0.60;;
36061;SDS011;22123;52.412;20.970;2022-07-29T08:13:16;1.92;;;0.73;;
36061;SDS011;22123;52.412;20.970;2022-07-29T08:15:42;3.05;;;0.60;;
36061;SDS011;22123;52.412;20.970;2022-07-29T08:18:09;5.60;;;0.80;;
36061;SDS011;22123;52.412;20.970;2022-07-29T08:20:35;3.17;;;0.70;;
36061;SDS011;22123;52.412;20.970;2022-07-29T08:23:03;4.88;;;0.80;;
36061;SDS011;22123;52.412;20.970;2022-07-29T08:25:29;1.75;;;0.80;;
36061;SDS011;22123;52.412;20.970;2022-07-29T08:27:55;1.48;;;0.50;;
36061;SDS011;22123;52.412;20.970;2022-07-29T08:30:21;7.40;;;1.05;;
36061;SDS011;22123;52.412;20.970;2022-07-29T08:32:47;1.60;;;0.70;;
36061;SDS011;22123;52.412;20.970;2022-07-29T08:35:13;2.95;;;0.65;;
36061;SDS011;22123;52.412;20.970;2022-07-29T08:37:39;4.78;;;0.80;;
36061;SDS011;22123;52.412;20.970;2022-07-29T08:40:05;2.00;;;0.73;;
36061;SDS011;22123;52.412;20.970;2022-07-29T08:42:31;1.40;;;0.65;;
36061;SDS011;22123;52.412;20.970;2022-07-29T08:44:56;5.93;;;0.75;;
36061;SDS011;22123;52.412;20.970;2022-07-29T08:47:23;0.68;;;0.40;;
36061;SDS011;22123;52.412;20.970;2022-07-29T08:49:51;3.38;;;0.70;;
36061;SDS011;22123;52.412;20.970;2022-07-29T08:52:17;3.17;;;0.80;;
36061;SDS011;22123;52.412;20.970;2022-07-29T08:54:43;2.92;;;0.60;;
36061;SDS011;22123;52.412;20.970;2022-07-29T08:57:10;1.75;;;0.50;;
36061;SDS011;22123;52.412;20.970;2022-07-29T08:59:38;1.38;;;0.57;;
36061;SDS011;22123;52.412;20.970;2022-07-29T09:02:05;2.60;;;0.77;;
36061;SDS011;22123;52.412;20.970;2022-07-29T09:04:40;2.85;;;0.63;;
36061;SDS011;22123;52.412;20.970;2022-07-29T09:07:06;7.57;;;0.98;;
36061;SDS011;22123;52.412;20.970;2022-07-29T09:09:34;2.08;;;0.77;;
36061;SDS011;22123;52.412;20.970;2022-07-29T09:11:59;2.00;;;0.80;;
36061;SDS011;22123;52.412;20.970;2022-07-29T09:14:25;5.90;;;0.75;;
36061;SDS011;22123;52.412;20.970;2022-07-29T09:16:52;8.00;;;0.63;;
36061;SDS011;22123;52.412;20.970;2022-07-29T09:19:20;12.80;;;1.65;;
36061;SDS011;22123;52.412;20.970;2022-07-29T09:21:51;3.78;;;0.68;;
36061;SDS011;22123;52.412;20.970;2022-07-29T09:24:24;2.97;;;0.77;;
36061;SDS011;22123;52.412;20.970;2022-07-29T09:26:59;2.85;;;0.80;;
36061;SDS011;22123;52.412;20.970;2022-07-29T09:29:25;2.85;;;0.75;;
36061;SDS011;22123;52.412;20.970;2022-07-29T09:31:52;6.50;;;0.65;;
36061;SDS011;22123;52.412;20.970;2022-07-29T09:36:53;7.95;;;0.70;;
36061;SDS011;22123;52.412;20.970;2022-07-29T09:39:29;1.60;;;0.70;;
36061;SDS011;22123;52.412;20.970;2022-07-29T09:41:56;3.90;;;0.70;;
36061;SDS011;22123;52.412;20.970;2022-07-29T09:44:24;3.78;;;0.77;;
36061;SDS011;22123;52.412;20.970;2022-07-29T09:46:58;2.55;;;0.60;;
36061;SDS011;22123;52.412;20.970;2022-07-29T09:49:34;4.88;;;0.70;;
36061;SDS011;22123;52.412;20.970;2022-07-29T09:52:14;3.83;;;0.80;;
36061;SDS011;22123;52.412;20.970;2022-07-29T09:54:40;4.63;;;0.82;;
36061;SDS011;22123;52.412;20.970;2022-07-29T09:57:06;12.98;;;1.35;;
36061;SDS011;22123;52.412;20.970;2022-07-29T09:59:37;4.50;;;0.95;;
36061;SDS011;22123;52.412;20.970;2022-07-29T10:02:13;4.07;;;0.70;;
36061;SDS011;22123;52.412;20.970;2022-07-29T10:04:42;3.53;;;0.80;;
36061;SDS011;22123;52.412;20.970;2022-07-29T10:07:07;8.18;;;0.90;;
36061;SDS011;22123;52.412;20.970;2022-07-29T10:09:34;2.13;;;0.68;;
36061;SDS011;22123;52.412;20.970;2022-07-29T10:12:04;3.28;;;0.52;;
36061;SDS011;22123;52.412;20.970;2022-07-29T10:14:31;1.90;;;0.80;;
36061;SDS011;22123;52.412;20.970;2022-07-29T10:16:58;1.58;;;0.70;;
36061;SDS011;22123;52.412;20.970;2022-07-29T10:19:25;2.80;;;0.70;;
36061;SDS011;22123;52.412;20.970;2022-07-29T10:21:50;2.85;;;0.55;;
36061;SDS011;22123;52.412;20.970;2022-07-29T10:24:16;0.90;;;0.40;;
36061;SDS011;22123;52.412;20.970;2022-07-29T10:26:42;5.07;;;0.60;;
36061;SDS011;22123;52.412;20.970;2022-07-29T10:29:11;1.30;;;0.50;;
36061;SDS011;22123;52.412;20.970;2022-07-29T10:31:40;3.08;;;0.80;;
36061;SDS011;22123;52.412;20.970;2022-07-29T10:34:20;2.75;;;0.50;;
36061;SDS011;22123;52.412;20.970;2022-07-29T10:37:02;4.47;;;0.57;;
36061;SDS011;22123;52.412;20.970;2022-07-29T10:42:24;2.20;;;0.60;;
36061;SDS011;22123;52.412;20.970;2022-07-29T10:44:52;2.92;;;0.70;;
36061;SDS011;22123;52.412;20.970;2022-07-29T10:47:20;4.05;;;0.60;;
36061;SDS011;22123;52.412;20.970;2022-07-29T10:49:56;4.68;;;1.00;;
36061;SDS011;22123;52.412;20.970;2022-07-29T10:55:31;3.03;;;0.55;;
36061;SDS011;22123;52.412;20.970;2022-07-29T10:58:11;2.13;;;0.60;;
36061;SDS011;22123;52.412;20.970;2022-07-29T11:00:44;1.83;;;0.57;;
36061;SDS011;22123;52.412;20.970;2022-07-29T11:06:12;2.72;;;0.70;;
36061;SDS011;22123;52.412;20.970;2022-07-29T11:08:38;1.40;;;0.45;;
36061;SDS011;22123;52.412;20.970;2022-07-29T11:13:45;3.13;;;0.70;;
36061;SDS011;22123;52.412;20.970;2022-07-29T11:16:11;4.90;;;0.68;;
36061;SDS011;22123;52.412;20.970;2022-07-29T11:21:37;6.33;;;0.80;;
36061;SDS011;22123;52.412;20.970;2022-07-29T11:24:18;3.15;;;0.90;;
36061;SDS011;22123;52.412;20.970;2022-07-29T11:26:44;1.88;;;0.50;;
36061;SDS011;22123;52.412;20.970;2022-07-29T11:31:45;6.07;;;0.70;;
36061;SDS011;22123;52.412;20.970;2022-07-29T11:34:23;1.52;;;0.57;;
36061;SDS011;22123;52.412;20.970;2022-07-29T11:39:39;0.85;;;0.50;;
36061;SDS011;22123;52.412;20.970;2022-07-29T11:44:53;2.55;;;0.60;;
36061;SDS011;22123;52.412;20.970;2022-07-29T11:47:24;3.70;;;0.73;;
36061;SDS011;22123;52.412;20.970;2022-07-29T11:49:51;1.65;;;0.52;;
36061;SDS011;22123;52.412;20.970;2022-07-29T11:52:18;2.90;;;0.73;;
36061;SDS011;22123;52.412;20.970;2022-07-29T11:54:44;3.42;;;0.93;;
36061;SDS011;22123;52.412;20.970;2022-07-29T11:57:13;4.72;;;0.60;;
36061;SDS011;22123;52.412;20.970;2022-07-29T11:59:41;2.28;;;0.80;;
36061;SDS011;22123;52.412;20.970;2022-07-29T12:02:08;2.20;;;0.60;;
36061;SDS011;22123;52.412;20.970;2022-07-29T12:04:34;5.95;;;0.70;;
36061;SDS011;22123;52.412;20.970;2022-07-29T12:07:13;2.05;;;0.60;;
36061;SDS011;22123;52.412;20.970;2022-07-29T12:09:39;5.55;;;0.50;;
36061;SDS011;22123;52.412;20.970;2022-07-29T12:12:04;1.40;;;0.50;;
36061;SDS011;22123;52.412;20.970;2022-07-29T12:14:31;1.38;;;0.30;;
36061;SDS011;22123;52.412;20.970;2022-07-29T12:16:58;2.97;;;0.90;;
36061;SDS011;22123;52.412;20.970;2022-07-29T12:19:28;1.58;;;0.65;;
36061;SDS011;22123;52.412;20.970;2022-07-29T12:21:54;2.22;;;0.77;;
36061;SDS011;22123;52.412;20.970;2022-07-29T12:24:20;4.82;;;0.77;;
36061;SDS011;22123;52.412;20.970;2022-07-29T12:26:52;5.93;;;0.90;;
36061;SDS011;22123;52.412;20.970;2022-07-29T12:29:17;5.85;;;1.00;;
36061;SDS011;22123;52.412;20.970;2022-07-29T12:31:43;2.47;;;0.80;;
36061;SDS011;22123;52.412;20.970;2022-07-29T12:34:13;2.88;;;1.35;;
36061;SDS011;22123;52.412;20.970;2022-07-29T12:36:40;2.50;;;0.82;;
36061;SDS011;22123;52.412;20.970;2022-07-29T12:39:07;0.80;;;0.40;;
36061;SDS011;22123;52.412;20.970;2022-07-29T12:41:34;4.03;;;0.60;;
36061;SDS011;22123;52.412;20.970;2022-07-29T12:43:59;4.65;;;0.60;;
36061;SDS011;22123;52.412;20.970;2022-07-29T12:46:25;1.27;;;0.68;;
36061;SDS011;22123;52.412;20.970;2022-07-29T12:48:51;1.42;;;0.60;;
36061;SDS011;22123;52.412;20.970;2022-07-29T12:51:31;4.75;;;1.15;;
36061;SDS011;22123;52.412;20.970;2022-07-29T12:54:06;2.13;;;0.60;;
36061;SDS011;22123;52.412;20.970;2022-07-29T12:56:37;3.15;;;0.63;;
36061;SDS011;22123;52.412;20.970;2022-07-29T12:59:16;1.25;;;0.60;;
36061;SDS011;22123;52.412;20.970;2022-07-29T13:01:47;2.75;;;0.80;;
36061;SDS011;22123;52.412;20.970;2022-07-29T13:04:23;2.05;;;0.70;;
36061;SDS011;22123;52.412;20.970;2022-07-29T13:07:00;5.32;;;0.93;;
36061;SDS011;22123;52.412;20.970;2022-07-29T13:09:35;2.80;;;0.82;;
36061;SDS011;22123;52.412;20.970;2022-07-29T13:12:12;2.30;;;0.73;;
36061;SDS011;22123;52.412;20.970;2022-07-29T13:14:39;4.03;;;0.50;;
36061;SDS011;22123;52.412;20.970;2022-07-29T13:17:08;2.45;;;0.70;;
36061;SDS011;22123;52.412;20.970;2022-07-29T13:19:39;2.22;;;0.80;;
36061;SDS011;22123;52.412;20.970;2022-07-29T13:22:06;1.85;;;0.52;;
36061;SDS011;22123;52.412;20.970;2022-07-29T13:24:33;3.63;;;0.70;;
36061;SDS011;22123;52.412;20.970;2022-07-29T13:27:09;3.22;;;0.65;;
36061;SDS011;22123;52.412;20.970;2022-07-29T13:29:35;0.80;;;0.52;;
36061;SDS011;22123;52.412;20.970;2022-07-29T13:32:02;2.83;;;0.57;;
36061;SDS011;22123;52.412;20.970;2022-07-29T13:34:28;1.38;;;0.57;;
36061;SDS011;22123;52.412;20.970;2022-07-29T13:36:53;3.45;;;0.55;;
36061;SDS011;22123;52.412;20.970;2022-07-29T13:39:18;1.63;;;0.55;;
36061;SDS011;22123;52.412;20.970;2022-07-29T13:41:44;5.10;;;0.60;;
36061;SDS011;22123;52.412;20.970;2022-07-29T13:44:09;8.32;;;1.20;;
36061;SDS011;22123;52.412;20.970;2022-07-29T13:46:35;2.72;;;0.70;;
36061;SDS011;22123;52.412;20.970;2022-07-29T13:49:00;9.98;;;0.90;;
36061;SDS011;22123;52.412;20.970;2022-07-29T13:51:26;3.03;;;0.57;;
36061;SDS011;22123;52.412;20.970;2022-07-29T13:53:51;4.78;;;0.43;;
36061;SDS011;22123;52.412;20.970;2022-07-29T13:56:16;1.52;;;0.50;;
36061;SDS011;22123;52.412;20.970;2022-07-29T13:58:42;4.35;;;0.60;;
36061;SDS011;22123;52.412;20.970;2022-07-29T14:01:07;5.43;;;0.90;;
36061;SDS011;22123;52.412;20.970;2022-07-29T14:03:33;3.78;;;0.65;;
36061;SDS011;22123;52.412;20.970;2022-07-29T14:05:59;2.90;;;0.77;;
36061;SDS011;22123;52.412;20.970;2022-07-29T14:08:25;5.97;;;1.40;;
36061;SDS011;22123;52.412;20.970;2022-07-29T15:21:22;2.90;;;0.68;;
36061;SDS011;22123;52.412;20.970;2022-07-29T15:23:47;1.48;;;0.75;;
36061;SDS011;22123;52.412;20.970;2022-07-29T15:26:12;7.35;;;0.75;;
36061;SDS011;22123;52.412;20.970;2022-07-29T15:28:38;12.15;;;2.13;;
36061;SDS011;22123;52.412;20.970;2022-07-29T15:31:03;1.55;;;0.60;;
36061;SDS011;22123;52.412;20.970;2022-07-29T15:33:29;2.90;;;1.05;;
36061;SDS011;22123;52.412;20.970;2022-07-29T15:35:55;3.70;;;0.75;;
36061;SDS011;22123;52.412;20.970;2022-07-29T15:38:21;6.22;;;1.00;;
36061;SDS011;22123;52.412;20.970;2022-07-29T15:40:46;1.98;;;0.50;;
36061;SDS011;22123;52.412;20.970;2022-07-29T15:43:12;6.38;;;0.80;;
36061;SDS011;22123;52.412;20.970;2022-07-29T15:45:38;3.22;;;0.82;;
36061;SDS011;22123;52.412;20.970;2022-07-29T15:48:06;3.03;;;0.70;;
36061;SDS011;22123;52.412;20.970;2022-07-29T15:50:33;2.85;;;0.80;;
36061;SDS011;22123;52.412;20.970;2022-07-29T15:52:59;3.15;;;0.60;;
36061;SDS011;22123;52.412;20.970;2022-07-29T15:55:25;2.90;;;0.60;;
36061;SDS011;22123;52.412;20.970;2022-07-29T15:57:50;2.53;;;0.80;;
36061;SDS011;22123;52.412;20.970;2022-07-29T16:00:16;3.92;;;0.70;;
36061;SDS011;22123;52.412;20.970;2022-07-29T16:02:42;1.88;;;0.60;;
36061;SDS011;22123;52.412;20.970;2022-07-29T16:05:08;4.55;;;0.82;;
36061;SDS011;22123;52.412;20.970;2022-07-29T16:07:34;3.10;;;0.73;;
36061;SDS011;22123;52.412;20.970;2022-07-29T16:10:00;4.25;;;1.00;;
36061;SDS011;22123;52.412;20.970;2022-07-29T16:12:25;4.13;;;0.82;;
36061;SDS011;22123;52.412;20.970;2022-07-29T16:14:51;4.43;;;0.80;;
36061;SDS011;22123;52.412;20.970;2022-07-29T16:17:17;1.45;;;0.85;;
36061;SDS011;22123;52.412;20.970;2022-07-29T16:19:43;3.95;;;0.60;;
36061;SDS011;22123;52.412;20.970;2022-07-29T16:22:10;2.38;;;0.75;;
36061;SDS011;22123;52.412;20.970;2022-07-29T16:24:36;2.45;;;0.88;;